createdAt,value
2023-03-23T15:59:17.694Z,16.82
2023-03-23T16:01:45.821Z,16.77
2023-03-23T16:04:19.026Z,16.78
2023-03-23T16:06:47.331Z,16.82
2023-03-23T16:09:17.543Z,16.70
2023-03-23T16:11:45.410Z,16.77
2023-03-23T16:14:13.534Z,16.68
2023-03-23T16:16:47.280Z,16.67
2023-03-23T16:19:20.409Z,16.63
2023-03-23T16:21:48.396Z,16.71
2023-03-23T16:24:16.302Z,16.75
2023-03-23T16:26:44.186Z,16.61
2023-03-23T16:29:22.308Z,16.68
2023-03-23T16:32:01.823Z,16.62
2023-03-23T16:34:33.836Z,16.63
2023-03-23T16:37:01.841Z,16.63
2023-03-23T16:39:29.767Z,16.61
2023-03-23T16:41:57.658Z,16.50
2023-03-23T16:44:25.592Z,16.49
2023-03-23T16:46:53.512Z,16.48
2023-03-23T16:49:21.424Z,16.47
2023-03-23T16:51:50.746Z,16.49
2023-03-23T16:54:18.638Z,16.48
2023-03-23T16:56:46.969Z,16.54
2023-03-23T16:59:15.275Z,16.42
2023-03-23T17:01:43.398Z,16.33
2023-03-23T17:04:12.088Z,16.36
2023-03-23T17:06:40.013Z,16.36
2023-03-23T17:09:09.901Z,16.34
2023-03-23T17:11:37.801Z,16.29
2023-03-23T17:14:05.738Z,16.17
2023-03-23T17:16:34.072Z,16.18
2023-03-23T17:19:02.083Z,16.15
2023-03-23T17:21:30.164Z,16.11
2023-03-23T17:23:58.069Z,16.11
2023-03-23T17:26:27.368Z,16.05
2023-03-23T17:28:55.335Z,16.01
2023-03-23T17:31:23.406Z,16.01
2023-03-23T17:33:52.223Z,15.91
2023-03-23T17:36:20.679Z,15.85
2023-03-23T17:38:48.574Z,15.83
2023-03-23T17:41:16.466Z,15.86
2023-03-23T17:43:45.802Z,15.75
2023-03-23T17:46:13.772Z,15.76
2023-03-23T17:48:41.841Z,15.77
2023-03-23T17:51:09.769Z,15.79
2023-03-23T17:53:37.815Z,15.76
2023-03-23T17:56:07.367Z,15.73
2023-03-23T17:58:36.669Z,15.64
2023-03-23T18:01:06.563Z,15.70
2023-03-23T18:03:35.004Z,15.65
2023-03-23T18:06:04.631Z,15.62
2023-03-23T18:08:34.379Z,15.58
2023-03-23T18:11:02.460Z,15.59
2023-03-23T18:13:32.408Z,15.53
2023-03-23T18:16:00.847Z,15.57
2023-03-23T18:18:30.789Z,15.48
2023-03-23T18:21:00.354Z,15.48
2023-03-23T18:23:29.745Z,15.43
2023-03-23T18:25:57.863Z,15.41
2023-03-23T18:28:26.361Z,15.43
2023-03-23T18:30:54.362Z,15.43
2023-03-23T18:33:25.202Z,15.34
2023-03-23T18:35:59.888Z,15.41
2023-03-23T18:38:28.679Z,15.38
2023-03-23T18:40:56.895Z,15.38
2023-03-23T18:43:25.258Z,15.41
2023-03-23T18:45:54.719Z,15.38
2023-03-23T18:48:23.054Z,15.38
2023-03-23T18:50:52.985Z,15.27
2023-03-23T18:53:23.089Z,15.08
2023-03-23T18:55:51.693Z,14.92
2023-03-23T18:58:20.861Z,14.98
2023-03-23T19:00:49.947Z,14.95
2023-03-23T19:03:18.117Z,14.89
2023-03-23T19:05:46.201Z,14.80
2023-03-23T19:08:14.354Z,14.99
2023-03-23T19:10:44.507Z,15.00
2023-03-23T19:13:12.501Z,14.98
2023-03-23T19:15:41.372Z,15.06
2023-03-23T19:18:09.950Z,14.95
2023-03-23T19:21:09.539Z,14.98
2023-03-23T19:23:26.109Z,15.01
2023-03-23T19:25:55.606Z,15.02
2023-03-23T19:29:03.860Z,14.78
2023-03-23T19:31:11.485Z,14.49
2023-03-23T19:33:40.398Z,14.61
2023-03-23T19:36:12.890Z,14.75
2023-03-23T19:38:41.573Z,14.76
2023-03-23T19:41:11.117Z,14.97
2023-03-23T19:43:39.446Z,15.01
2023-03-23T19:46:07.685Z,15.17
2023-03-23T19:48:35.644Z,15.35
2023-03-23T19:51:04.271Z,15.17
2023-03-23T19:53:33.281Z,15.52
2023-03-23T19:56:04.856Z,15.58
2023-03-23T19:58:34.640Z,15.64
2023-03-23T20:01:05.981Z,15.69
2023-03-23T20:03:33.989Z,15.85
2023-03-23T20:06:02.894Z,15.86
2023-03-23T20:08:32.960Z,16.01
2023-03-23T20:11:05.623Z,16.09
2023-03-23T20:13:35.839Z,16.03
2023-03-23T20:16:04.002Z,16.00
2023-03-23T20:18:35.251Z,15.90
2023-03-23T20:21:04.027Z,15.73
2023-03-23T20:23:35.560Z,15.58
2023-03-23T20:26:06.778Z,15.81
2023-03-23T20:28:37.967Z,15.72
2023-03-23T20:31:19.964Z,15.73
2023-03-23T20:34:00.923Z,15.72
2023-03-23T20:36:35.036Z,15.88
2023-03-23T20:39:03.855Z,15.92
2023-03-23T20:41:32.958Z,15.76
2023-03-23T20:44:04.265Z,15.52
2023-03-23T20:46:35.534Z,15.34
2023-03-23T20:49:06.075Z,15.45
2023-03-23T20:51:40.439Z,15.27
2023-03-23T20:54:10.201Z,15.25
2023-03-23T20:56:40.478Z,15.31
2023-03-23T20:59:10.260Z,15.54
2023-03-23T21:01:40.031Z,15.81
2023-03-23T21:04:15.668Z,15.82
2023-03-23T21:06:44.001Z,15.97
2023-03-23T21:09:12.010Z,16.15
2023-03-23T21:11:40.316Z,16.35
2023-03-23T21:14:10.153Z,16.28
2023-03-23T21:16:38.374Z,16.26
2023-03-23T21:19:07.478Z,16.15
2023-03-23T21:21:35.641Z,16.15
2023-03-23T21:24:03.600Z,16.31
2023-03-23T21:26:32.047Z,16.32
2023-03-23T21:29:01.101Z,16.46
2023-03-23T21:31:33.259Z,16.38
2023-03-23T21:34:01.646Z,16.65
2023-03-23T21:36:30.450Z,16.56
2023-03-23T21:38:58.827Z,16.63
2023-03-23T21:41:27.104Z,16.87
2023-03-23T21:43:55.047Z,16.91
2023-03-23T21:46:23.417Z,16.82
2023-03-23T21:48:52.816Z,17.20
2023-03-23T21:51:23.428Z,17.12
2023-03-23T21:53:54.416Z,17.09
2023-03-23T21:56:23.872Z,17.12
2023-03-23T21:58:52.385Z,17.02
2023-03-23T22:01:21.431Z,17.11
2023-03-23T22:03:50.220Z,17.15
2023-03-23T22:06:20.969Z,17.02
2023-03-23T22:08:50.373Z,17.01
2023-03-23T22:11:20.463Z,16.99
2023-03-23T22:13:52.174Z,17.13
2023-03-23T22:16:23.777Z,17.22
2023-03-23T22:18:55.464Z,17.13
2023-03-23T22:21:27.951Z,16.99
2023-03-23T22:23:58.771Z,17.01
2023-03-23T22:26:28.214Z,17.03
2023-03-23T22:28:57.261Z,17.09
2023-03-23T22:31:27.803Z,17.11
2023-03-23T22:33:57.160Z,17.15
2023-03-23T22:36:28.866Z,17.04
2023-03-23T22:38:58.616Z,17.12
2023-03-23T22:41:28.640Z,17.32
2023-03-23T22:44:06.417Z,17.14
2023-03-23T22:46:34.507Z,17.10
2023-03-23T22:49:05.007Z,16.96
2023-03-23T22:51:36.935Z,17.16
2023-03-23T22:54:06.819Z,17.13
2023-03-23T22:56:37.242Z,16.99
2023-03-23T22:59:08.212Z,17.25
2023-03-23T23:01:36.646Z,17.13
2023-03-23T23:04:06.537Z,17.00
2023-03-23T23:06:36.048Z,17.14
2023-03-23T23:09:04.553Z,17.01
2023-03-23T23:11:32.546Z,16.84
2023-03-23T23:14:00.661Z,16.73
2023-03-23T23:16:28.610Z,16.85
2023-03-23T23:18:56.808Z,17.08
2023-03-23T23:21:27.141Z,17.04
2023-03-23T23:23:56.545Z,16.93
2023-03-23T23:26:24.558Z,16.73
2023-03-23T23:28:52.869Z,16.80
2023-03-23T23:31:26.088Z,16.76
2023-03-23T23:33:55.222Z,16.87
2023-03-23T23:36:23.488Z,16.69
2023-03-23T23:38:51.644Z,16.53
2023-03-23T23:41:20.960Z,16.40
2023-03-23T23:43:48.911Z,16.36
2023-03-23T23:46:16.937Z,16.35
2023-03-23T23:48:45.172Z,16.32
2023-03-23T23:51:15.319Z,16.22
2023-03-23T23:53:44.210Z,15.98
2023-03-23T23:56:13.361Z,16.02
2023-03-23T23:58:42.642Z,16.20
